createdAt,value
2022-11-05T00:00:28.800Z,8.73
2022-11-05T00:03:13.300Z,8.13
2022-11-05T00:06:01.132Z,8.07
2022-11-05T00:08:45.017Z,8.65
2022-11-05T00:11:18.592Z,8.13
2022-11-05T00:14:02.520Z,8.27
2022-11-05T00:16:49.371Z,8.18
2022-11-05T00:19:21.696Z,8.60
2022-11-05T00:22:05.578Z,8.18
2022-11-05T00:24:49.264Z,7.70
2022-11-05T00:27:21.109Z,7.70
2022-11-05T00:29:52.810Z,8.13
2022-11-05T00:32:28.027Z,7.38
2022-11-05T00:35:00.863Z,7.13
2022-11-05T00:37:34.122Z,6.60
2022-11-05T00:40:06.605Z,6.97
2022-11-05T00:42:53.312Z,8.15
2022-11-05T00:45:25.800Z,8.27
2022-11-05T00:48:12.475Z,8.18
2022-11-05T00:50:44.318Z,7.40
2022-11-05T00:53:16.946Z,7.15
2022-11-05T00:55:51.434Z,7.68
2022-11-05T00:58:25.407Z,7.68
2022-11-05T01:00:59.437Z,8.80
2022-11-05T01:03:37.759Z,7.97
2022-11-05T01:06:15.619Z,8.85
2022-11-05T01:08:50.226Z,7.97
2022-11-05T01:11:36.316Z,7.72
2022-11-05T01:14:09.654Z,8.38
2022-11-05T01:16:42.270Z,8.18
2022-11-05T01:19:18.121Z,9.00
2022-11-05T01:21:50.843Z,9.35
2022-11-05T01:24:22.315Z,8.38
2022-11-05T01:26:54.656Z,9.10
2022-11-05T01:29:26.940Z,8.43
2022-11-05T01:31:59.193Z,9.35
2022-11-05T01:34:34.704Z,7.75
2022-11-05T01:37:06.504Z,8.10
2022-11-05T01:39:39.056Z,7.07
2022-11-05T01:42:19.338Z,9.05
2022-11-05T01:45:04.171Z,7.47
2022-11-05T01:47:59.703Z,8.27
2022-11-05T01:50:41.421Z,8.82
2022-11-05T01:53:20.071Z,8.05
2022-11-05T01:55:58.323Z,8.48
2022-11-05T01:58:36.708Z,8.82
2022-11-05T02:01:08.900Z,8.25
2022-11-05T02:03:42.608Z,7.68
2022-11-05T02:06:19.446Z,6.60
2022-11-05T02:11:28.762Z,6.27
2022-11-05T02:14:01.520Z,7.30
2022-11-05T02:16:42.207Z,7.40
2022-11-05T02:19:43.239Z,8.23
2022-11-05T02:22:46.468Z,8.88
2022-11-05T02:25:44.101Z,7.80
2022-11-05T02:28:40.835Z,7.38
2022-11-05T02:31:21.744Z,6.53
2022-11-05T02:34:01.661Z,6.20
2022-11-05T02:36:43.979Z,5.70
2022-11-05T02:39:29.885Z,5.90
2022-11-05T02:42:11.655Z,6.65
2022-11-05T02:44:49.610Z,5.43
2022-11-05T02:47:31.691Z,5.55
2022-11-05T02:50:13.757Z,6.68
2022-11-05T02:52:54.417Z,5.82
2022-11-05T02:55:33.713Z,4.97
2022-11-05T02:58:07.677Z,5.32
2022-11-05T03:01:02.658Z,4.97
2022-11-05T03:03:41.079Z,4.65
2022-11-05T03:06:37.911Z,5.13
2022-11-05T03:09:36.402Z,5.93
2022-11-05T03:12:22.740Z,8.77
2022-11-05T03:15:02.944Z,11.63
2022-11-05T03:17:42.371Z,11.85
2022-11-05T03:20:24.178Z,8.35
2022-11-05T03:23:02.264Z,7.15
2022-11-05T03:25:36.526Z,4.80
2022-11-05T03:28:12.548Z,4.90
2022-11-05T03:30:47.872Z,4.90
2022-11-05T03:33:24.353Z,4.88
2022-11-05T03:36:01.847Z,5.45
2022-11-05T03:38:39.640Z,4.78
2022-11-05T03:41:15.328Z,4.90
2022-11-05T03:43:51.956Z,3.72
2022-11-05T03:46:29.533Z,3.80
2022-11-05T03:49:06.385Z,4.28
2022-11-05T03:51:49.925Z,5.53
2022-11-05T03:54:22.016Z,5.55
2022-11-05T03:57:02.495Z,4.72
2022-11-05T03:59:36.472Z,5.47
2022-11-05T04:02:08.472Z,6.28
2022-11-05T04:04:40.303Z,5.57
2022-11-05T04:07:27.993Z,5.78
2022-11-05T04:10:12.119Z,6.43
2022-11-05T04:12:55.781Z,5.57
2022-11-05T04:15:27.304Z,7.03
2022-11-05T04:17:59.262Z,6.90
2022-11-05T04:20:42.890Z,5.50
2022-11-05T04:23:28.981Z,4.47
2022-11-05T04:26:02.277Z,4.40
2022-11-05T04:28:45.790Z,5.57
2022-11-05T04:31:17.228Z,6.05
2022-11-05T04:33:48.725Z,5.20
2022-11-05T04:36:20.196Z,5.00
2022-11-05T04:38:54.591Z,4.15
2022-11-05T04:41:26.357Z,4.00
2022-11-05T04:43:58.474Z,4.25
2022-11-05T04:46:29.843Z,3.95
2022-11-05T04:49:01.055Z,3.78
2022-11-05T04:51:32.371Z,3.53
2022-11-05T04:54:06.959Z,3.97
2022-11-05T04:56:39.173Z,3.53
2022-11-05T04:59:11.053Z,3.00
2022-11-05T05:01:42.678Z,3.05
2022-11-05T05:04:14.935Z,3.38
2022-11-05T05:06:47.235Z,3.33
2022-11-05T05:09:21.954Z,2.92
2022-11-05T05:11:53.463Z,3.20
2022-11-05T05:14:25.250Z,3.30
2022-11-05T05:16:57.242Z,2.95
2022-11-05T05:19:29.989Z,3.72
2022-11-05T05:21:59.045Z,3.40
2022-11-05T05:24:34.052Z,3.42
2022-11-05T05:27:06.060Z,3.35
2022-11-05T05:29:37.989Z,3.30
2022-11-05T05:32:10.248Z,3.50
2022-11-05T05:34:42.778Z,3.50
2022-11-05T05:37:14.240Z,2.83
2022-11-05T05:39:48.569Z,3.55
2022-11-05T05:42:21.627Z,3.17
2022-11-05T05:44:53.476Z,3.47
2022-11-05T05:47:25.371Z,2.95
2022-11-05T05:49:57.728Z,3.47
2022-11-05T05:52:29.354Z,3.80
2022-11-05T05:55:05.572Z,3.20
2022-11-05T05:57:38.277Z,3.40
2022-11-05T06:00:11.189Z,3.05
2022-11-05T06:02:45.949Z,3.00
2022-11-05T06:05:17.661Z,3.75
2022-11-05T06:07:50.616Z,4.53
2022-11-05T06:10:25.734Z,3.10
2022-11-05T06:12:57.312Z,3.38
2022-11-05T06:15:34.593Z,3.38
2022-11-05T06:18:06.705Z,3.30
2022-11-05T06:20:37.627Z,3.00
2022-11-05T06:23:08.596Z,4.13
2022-11-05T06:25:43.356Z,3.80
2022-11-05T06:28:15.617Z,3.83
2022-11-05T06:30:47.128Z,3.10
2022-11-05T06:33:19.155Z,2.72
2022-11-05T06:35:50.645Z,3.10
2022-11-05T06:38:22.158Z,3.10
2022-11-05T06:40:57.012Z,2.65
2022-11-05T06:43:28.528Z,2.90
2022-11-05T06:46:00.812Z,2.75
2022-11-05T06:48:32.173Z,3.08
2022-11-05T06:51:03.664Z,2.88
2022-11-05T06:53:35.378Z,2.63
2022-11-05T06:56:11.967Z,2.92
2022-11-05T06:58:42.953Z,3.30
2022-11-05T07:01:14.642Z,3.50
2022-11-05T07:03:49.295Z,3.03
2022-11-05T07:06:20.656Z,2.88
2022-11-05T07:08:52.588Z,3.60
2022-11-05T07:11:27.146Z,3.40
2022-11-05T07:13:58.269Z,3.58
2022-11-05T07:16:29.470Z,4.05
2022-11-05T07:19:01.183Z,3.50
2022-11-05T07:21:32.903Z,4.70
2022-11-05T07:24:04.556Z,3.47
2022-11-05T07:26:38.428Z,4.00
2022-11-05T07:29:09.428Z,3.67
2022-11-05T07:31:40.383Z,4.22
2022-11-05T07:34:11.398Z,3.33
2022-11-05T07:36:42.902Z,3.20
2022-11-05T07:39:14.353Z,3.83
2022-11-05T07:41:48.664Z,3.67
2022-11-05T07:44:19.655Z,3.80
2022-11-05T07:46:50.951Z,5.00
2022-11-05T07:49:22.072Z,3.65
2022-11-05T07:51:53.907Z,3.65
2022-11-05T07:54:26.735Z,3.65
2022-11-05T07:57:01.781Z,4.00
2022-11-05T07:59:32.859Z,3.40
2022-11-05T08:02:04.351Z,3.33
2022-11-05T08:04:35.212Z,4.28
2022-11-05T08:07:06.151Z,4.22
2022-11-05T08:09:37.172Z,6.30
2022-11-05T08:12:11.649Z,4.82
2022-11-05T08:14:42.864Z,4.22
2022-11-05T08:17:18.322Z,5.03
2022-11-05T08:19:50.021Z,2.65
2022-11-05T08:22:20.997Z,2.40
2022-11-05T08:24:51.854Z,2.40
2022-11-05T08:27:25.669Z,2.53
2022-11-05T08:29:56.472Z,2.80
2022-11-05T08:32:27.664Z,3.53
2022-11-05T08:34:59.325Z,3.08
2022-11-05T08:37:30.745Z,2.95
2022-11-05T08:40:01.961Z,3.38
2022-11-05T08:42:35.671Z,3.88
2022-11-05T08:45:07.310Z,3.40
2022-11-05T08:47:38.379Z,3.33
2022-11-05T08:50:10.385Z,2.65
2022-11-05T08:52:44.507Z,2.50
2022-11-05T08:55:19.070Z,2.85
2022-11-05T08:57:57.712Z,1.90
2022-11-05T09:00:30.484Z,2.17
2022-11-05T09:03:03.539Z,2.63
2022-11-05T09:05:38.253Z,1.77
2022-11-05T09:08:09.160Z,2.10
2022-11-05T09:10:40.543Z,1.65
2022-11-05T09:13:18.917Z,2.33
2022-11-05T09:15:51.072Z,1.95
2022-11-05T09:18:23.801Z,2.35
2022-11-05T09:20:54.886Z,1.80
2022-11-05T09:23:26.140Z,2.88
2022-11-05T09:25:57.307Z,1.40
2022-11-05T09:28:31.913Z,2.22
2022-11-05T09:31:03.629Z,1.90
2022-11-05T09:33:34.725Z,2.00
2022-11-05T09:36:05.827Z,3.30
2022-11-05T09:38:38.156Z,2.10
2022-11-05T09:41:15.592Z,2.65
2022-11-05T09:43:53.474Z,2.17
2022-11-05T09:46:27.277Z,2.63
2022-11-05T09:49:03.536Z,2.35
2022-11-05T09:51:36.440Z,2.00
2022-11-05T09:54:08.314Z,2.97
2022-11-05T09:56:43.614Z,2.42
2022-11-05T09:59:22.590Z,2.97
2022-11-05T10:01:56.783Z,3.13
2022-11-05T10:04:31.535Z,1.98
2022-11-05T10:07:07.706Z,2.75
2022-11-05T10:09:45.521Z,2.40
2022-11-05T10:12:22.798Z,2.25
2022-11-05T10:15:11.061Z,2.65
2022-11-05T10:17:45.828Z,2.90
2022-11-05T10:20:23.993Z,3.00
2022-11-05T10:23:00.125Z,2.40
2022-11-05T10:25:34.838Z,3.08
2022-11-05T10:28:09.563Z,3.28
2022-11-05T10:30:43.825Z,2.42
2022-11-05T10:33:18.613Z,2.33
2022-11-05T10:35:55.529Z,2.50
2022-11-05T10:41:11.582Z,2.03
2022-11-05T10:43:49.857Z,2.25
2022-11-05T10:46:35.214Z,1.92
2022-11-05T10:49:30.030Z,2.20
2022-11-05T10:52:08.447Z,2.03
2022-11-05T10:54:40.522Z,1.77
2022-11-05T10:57:33.199Z,2.33
2022-11-05T11:00:24.125Z,1.73
2022-11-05T11:03:00.685Z,1.73
2022-11-05T11:05:35.816Z,1.88
2022-11-05T11:08:26.298Z,2.00
2022-11-05T11:11:01.230Z,1.88
2022-11-05T11:13:49.750Z,1.60
2022-11-05T11:16:24.856Z,1.52
2022-11-05T11:19:24.865Z,1.67
2022-11-05T11:22:21.027Z,1.60
2022-11-05T11:24:54.358Z,1.75
2022-11-05T11:27:28.037Z,1.50
2022-11-05T11:30:02.161Z,1.80
2022-11-05T11:32:38.888Z,2.17
2022-11-05T11:35:24.286Z,1.90
2022-11-05T11:38:01.468Z,2.03
2022-11-05T11:40:35.425Z,1.73
2022-11-05T11:43:10.060Z,1.95
2022-11-05T11:45:48.601Z,1.42
2022-11-05T11:48:24.964Z,1.98
2022-11-05T11:51:32.532Z,1.77
2022-11-05T11:54:04.759Z,1.30
2022-11-05T11:56:46.881Z,1.17
2022-11-05T11:59:46.769Z,1.08
2022-11-05T12:02:46.994Z,1.67
2022-11-05T12:05:30.190Z,1.20
2022-11-05T12:08:11.531Z,1.00
2022-11-05T12:10:58.028Z,1.40
2022-11-05T12:13:49.442Z,1.15
2022-11-05T12:16:28.784Z,1.00
2022-11-05T12:19:12.223Z,1.08
2022-11-05T12:21:53.061Z,1.27
2022-11-05T12:25:11.566Z,1.30
2022-11-05T12:28:06.908Z,1.90
2022-11-05T12:30:46.618Z,1.95
2022-11-05T12:33:28.118Z,1.50
2022-11-05T12:36:09.786Z,1.20
2022-11-05T12:38:57.685Z,2.20
2022-11-05T12:41:34.395Z,1.70
2022-11-05T12:44:22.385Z,1.85
2022-11-05T12:47:06.816Z,1.92
2022-11-05T12:49:55.062Z,1.50
2022-11-05T12:52:54.125Z,1.85
2022-11-05T12:55:29.058Z,1.60
2022-11-05T12:58:12.152Z,1.52
2022-11-05T13:00:50.414Z,2.08
2022-11-05T13:03:31.494Z,2.13
2022-11-05T13:06:08.384Z,1.88
2022-11-05T13:08:46.919Z,1.83
2022-11-05T13:11:23.849Z,8.40
2022-11-05T13:16:40.221Z,16.27
2022-11-05T13:19:19.929Z,5.45
2022-11-05T13:21:56.677Z,12.40
2022-11-05T13:24:31.992Z,6.20
2022-11-05T13:27:13.874Z,5.63
2022-11-05T13:29:52.597Z,3.33
2022-11-05T13:32:34.710Z,2.90
2022-11-05T13:35:09.097Z,3.47
2022-11-05T13:37:57.921Z,2.63
2022-11-05T13:40:40.262Z,4.68
2022-11-05T13:43:45.184Z,4.93
2022-11-05T13:46:57.597Z,3.40
2022-11-05T13:49:56.995Z,2.38
2022-11-05T13:53:00.781Z,1.60
2022-11-05T13:55:45.735Z,1.80
2022-11-05T13:58:46.245Z,1.52
2022-11-05T14:01:29.992Z,1.85
2022-11-05T14:04:01.651Z,1.98
2022-11-05T14:06:38.328Z,2.30
2022-11-05T14:09:14.155Z,3.78
2022-11-05T14:11:51.737Z,3.30
2022-11-05T14:14:24.792Z,2.65
2022-11-05T14:16:58.966Z,2.10
2022-11-05T14:19:52.239Z,2.40
2022-11-05T14:22:41.378Z,2.22
2022-11-05T14:25:41.994Z,2.50
2022-11-05T14:28:44.645Z,2.78
2022-11-05T14:31:54.411Z,2.75
2022-11-05T14:34:42.252Z,3.30
2022-11-05T14:37:42.349Z,3.28
2022-11-05T14:40:46.217Z,3.00
2022-11-05T14:43:24.722Z,3.58
2022-11-05T14:46:00.957Z,4.30
2022-11-05T14:48:41.293Z,2.60
2022-11-05T14:51:29.726Z,2.63
2022-11-05T14:54:10.289Z,3.30
2022-11-05T14:56:55.849Z,3.38
2022-11-05T14:59:57.348Z,2.35
2022-11-05T15:02:34.488Z,2.97
2022-11-05T15:05:50.295Z,2.90
2022-11-05T15:08:39.071Z,2.80
2022-11-05T15:11:25.083Z,2.53
2022-11-05T15:14:06.529Z,2.05
2022-11-05T15:16:40.202Z,2.45
2022-11-05T15:19:20.510Z,2.33
2022-11-05T15:21:52.444Z,2.28
2022-11-05T15:24:25.756Z,1.88
2022-11-05T15:27:07.004Z,2.40
2022-11-05T15:29:38.524Z,1.98
2022-11-05T15:32:18.072Z,2.70
2022-11-05T15:34:55.391Z,1.88
2022-11-05T15:37:28.914Z,1.88
2022-11-05T15:39:59.765Z,2.22
2022-11-05T15:42:33.375Z,2.22
2022-11-05T15:45:04.121Z,2.40
2022-11-05T15:47:36.179Z,2.47
2022-11-05T15:50:15.379Z,2.38
2022-11-05T15:52:54.134Z,1.80
2022-11-05T15:55:27.242Z,1.90
2022-11-05T15:58:04.257Z,1.30
2022-11-05T16:00:38.086Z,1.80
2022-11-05T16:03:15.733Z,1.88
2022-11-05T16:05:49.820Z,2.42
2022-11-05T16:08:24.139Z,1.67
2022-11-05T16:10:59.224Z,2.28
2022-11-05T16:13:45.016Z,1.55
2022-11-05T16:16:29.165Z,1.42
2022-11-05T16:19:00.398Z,1.63
2022-11-05T16:21:31.810Z,1.35
2022-11-05T16:24:03.699Z,1.65
2022-11-05T16:29:34.349Z,1.35
2022-11-05T16:32:07.891Z,1.50
2022-11-05T16:34:41.499Z,1.58
2022-11-05T16:37:16.206Z,1.70
2022-11-05T16:39:46.971Z,1.77
2022-11-05T16:42:42.344Z,1.50
2022-11-05T16:45:17.813Z,1.77
2022-11-05T16:47:50.028Z,1.55
2022-11-05T16:50:25.435Z,1.80
2022-11-05T16:52:56.823Z,2.10
2022-11-05T16:55:27.641Z,1.60
2022-11-05T16:57:59.448Z,1.58
2022-11-05T17:00:33.241Z,1.98
2022-11-05T17:03:04.566Z,1.60
2022-11-05T17:05:35.548Z,2.08
2022-11-05T17:08:06.544Z,2.42
2022-11-05T17:10:37.713Z,2.50
2022-11-05T17:13:08.797Z,2.55
2022-11-05T17:15:42.774Z,2.75
2022-11-05T17:18:18.645Z,2.33
2022-11-05T17:20:53.600Z,2.30
2022-11-05T17:23:26.912Z,2.30
2022-11-05T17:26:02.319Z,1.90
2022-11-05T17:28:33.742Z,2.47
2022-11-05T17:31:14.299Z,2.33
2022-11-05T17:33:45.322Z,2.17
2022-11-05T17:36:19.643Z,2.20
2022-11-05T17:38:50.602Z,2.63
2022-11-05T17:41:23.206Z,2.33
2022-11-05T17:43:58.765Z,2.15
2022-11-05T17:46:32.508Z,2.63
2022-11-05T17:49:03.804Z,2.33
2022-11-05T17:51:35.351Z,2.80
2022-11-05T17:54:07.763Z,2.60
2022-11-05T17:56:44.826Z,3.45
2022-11-05T17:59:16.152Z,2.92
2022-11-05T18:01:50.016Z,2.75
2022-11-05T18:04:21.529Z,3.08
2022-11-05T18:06:52.798Z,2.25
2022-11-05T18:09:24.156Z,2.42
2022-11-05T18:11:55.518Z,2.95
2022-11-05T18:14:26.922Z,2.53
2022-11-05T18:17:01.510Z,2.42
2022-11-05T18:19:33.463Z,2.95
2022-11-05T18:22:04.724Z,2.53
2022-11-05T18:24:35.928Z,2.70
2022-11-05T18:27:07.312Z,2.53
2022-11-05T18:29:38.831Z,3.55
2022-11-05T18:32:13.071Z,3.50
2022-11-05T18:34:44.492Z,2.92
2022-11-05T18:37:15.614Z,2.85
2022-11-05T18:39:47.566Z,2.70
2022-11-05T18:42:18.669Z,2.97
2022-11-05T18:44:50.161Z,2.55
2022-11-05T18:47:24.094Z,2.85
2022-11-05T18:49:55.515Z,3.05
2022-11-05T18:52:28.488Z,2.75
2022-11-05T18:55:00.440Z,2.70
2022-11-05T18:57:31.981Z,3.72
2022-11-05T19:00:02.957Z,3.00
2022-11-05T19:02:36.749Z,2.92
2022-11-05T19:05:28.390Z,2.80
2022-11-05T19:07:59.265Z,2.50
2022-11-05T19:10:31.458Z,2.83
2022-11-05T19:13:02.483Z,4.90
2022-11-05T19:15:33.764Z,2.95
2022-11-05T19:18:07.573Z,2.47
2022-11-05T19:20:38.758Z,2.13
2022-11-05T19:23:09.715Z,2.53
2022-11-05T19:25:41.925Z,2.40
2022-11-05T19:28:12.900Z,2.05
2022-11-05T19:30:44.221Z,2.65
2022-11-05T19:33:17.551Z,2.38
2022-11-05T19:35:48.782Z,2.95
2022-11-05T19:38:19.614Z,3.42
2022-11-05T19:40:50.798Z,2.88
2022-11-05T19:43:21.527Z,2.80
2022-11-05T19:45:52.928Z,3.08
2022-11-05T19:48:27.839Z,4.38
2022-11-05T19:50:58.586Z,4.75
2022-11-05T19:53:29.940Z,3.25
2022-11-05T19:56:01.121Z,6.22
2022-11-05T19:58:32.241Z,3.60
2022-11-05T20:01:04.226Z,4.57
2022-11-05T20:03:38.922Z,4.68
2022-11-05T20:06:13.395Z,6.88
2022-11-05T20:09:14.878Z,9.27
2022-11-05T20:11:37.846Z,4.15
2022-11-05T20:14:10.339Z,11.18
2022-11-05T20:16:43.026Z,4.20
2022-11-05T20:19:19.018Z,4.88
2022-11-05T20:21:50.239Z,5.10
2022-11-05T20:24:25.327Z,5.43
2022-11-05T20:26:58.186Z,4.55
2022-11-05T20:29:35.238Z,5.78
2022-11-05T20:32:08.027Z,3.33
2022-11-05T20:34:43.274Z,3.28
2022-11-05T20:37:14.600Z,5.28
2022-11-05T20:39:46.832Z,4.07
2022-11-05T20:42:18.110Z,3.80
2022-11-05T20:44:49.397Z,4.07
2022-11-05T20:47:20.729Z,3.63
2022-11-05T20:49:55.779Z,3.70
2022-11-05T20:52:27.361Z,3.67
2022-11-05T20:54:59.357Z,5.18
2022-11-05T20:57:31.190Z,3.75
2022-11-05T21:00:06.094Z,3.88
2022-11-05T21:02:38.911Z,4.00
2022-11-05T21:05:14.609Z,4.07
2022-11-05T21:07:46.431Z,3.25
2022-11-05T21:10:17.674Z,4.13
2022-11-05T21:12:49.061Z,3.60
2022-11-05T21:15:23.325Z,3.47
2022-11-05T21:17:54.743Z,3.10
2022-11-05T21:20:29.661Z,3.30
2022-11-05T21:23:02.321Z,2.67
2022-11-05T21:25:33.864Z,3.42
2022-11-05T21:28:05.531Z,3.08
2022-11-05T21:30:37.172Z,3.83
2022-11-05T21:33:10.121Z,3.17
2022-11-05T21:35:47.787Z,3.08
2022-11-05T21:38:20.703Z,4.13
2022-11-05T21:40:53.355Z,2.92
2022-11-05T21:43:25.223Z,3.17
2022-11-05T21:45:56.216Z,2.78
2022-11-05T21:48:28.038Z,3.55
2022-11-05T21:51:14.177Z,3.28
2022-11-05T21:54:09.183Z,2.83
2022-11-05T21:56:53.123Z,4.13
2022-11-05T21:59:39.069Z,5.05
2022-11-05T22:02:12.484Z,4.43
2022-11-05T22:04:45.147Z,3.53
2022-11-05T22:07:21.204Z,3.38
2022-11-05T22:09:52.696Z,2.92
2022-11-05T22:12:25.153Z,2.83
2022-11-05T22:14:56.472Z,3.47
2022-11-05T22:17:27.482Z,3.45
2022-11-05T22:19:58.943Z,3.83
2022-11-05T22:22:32.804Z,3.35
2022-11-05T22:25:04.236Z,3.33
2022-11-05T22:27:35.058Z,2.75
2022-11-05T22:30:06.568Z,3.72
2022-11-05T22:32:37.266Z,2.78
2022-11-05T22:35:09.197Z,3.28
2022-11-05T22:37:42.564Z,2.50
2022-11-05T22:40:13.831Z,2.92
2022-11-05T22:42:45.061Z,2.75
2022-11-05T22:45:15.995Z,2.90
2022-11-05T22:47:46.673Z,2.95
2022-11-05T22:50:17.582Z,2.13
2022-11-05T22:52:51.141Z,2.53
2022-11-05T22:55:22.248Z,2.53
2022-11-05T22:57:53.761Z,2.63
2022-11-05T23:00:35.989Z,3.70
2022-11-05T23:03:07.035Z,2.55
2022-11-05T23:05:38.447Z,2.75
2022-11-05T23:08:25.283Z,2.88
2022-11-05T23:11:08.653Z,4.10
2022-11-05T23:13:39.723Z,3.05
2022-11-05T23:16:29.061Z,2.20
2022-11-05T23:19:12.128Z,2.90
2022-11-05T23:22:03.597Z,2.63
2022-11-05T23:24:39.791Z,3.20
2022-11-05T23:27:10.868Z,2.90
2022-11-05T23:29:41.620Z,2.20
2022-11-05T23:32:24.687Z,3.20
2022-11-05T23:34:56.236Z,2.40
2022-11-05T23:37:40.567Z,2.42
2022-11-05T23:40:16.777Z,2.35
2022-11-05T23:43:00.875Z,2.93
2022-11-05T23:45:46.998Z,2.83
2022-11-05T23:48:23.359Z,2.08
2022-11-05T23:50:56.340Z,3.40
2022-11-05T23:53:27.607Z,4.35
2022-11-05T23:56:06.195Z,3.25
2022-11-05T23:58:37.546Z,2.25
